Time;durP1;ratioP1;P1;durP2;ratioP2;P2;SDS_P1;SDS_P2;PMS_P1;PMS_P2;Temp;Humidity;BMP_temperature;BMP_pressure;BME280_temperature;BME280_humidity;BME280_pressure;Samples;Min_cycle;Max_cycle;Signal;HPM_P1;HPM_P2
2021/07/01 00:01:25;;;;;;;5.57;4.03;;;26.40;52.50;;;;;;6134458;28;80666;-67
2021/07/01 00:04:26;;;;;;;4.80;3.85;;;26.50;52.50;;;;;;6126659;28;81207;-67
2021/07/01 00:07:26;;;;;;;5.15;3.97;;;26.40;52.50;;;;;;6133768;28;80742;-67
2021/07/01 00:10:27;;;;;;;7.57;4.28;;;26.40;52.50;;;;;;6128909;28;80272;-68
2021/07/01 00:13:27;;;;;;;6.28;4.13;;;26.50;52.70;;;;;;6135072;28;80336;-67
2021/07/01 00:16:28;;;;;;;8.80;4.13;;;26.50;52.60;;;;;;6130545;28;80852;-68
2021/07/01 00:19:28;;;;;;;8.73;4.32;;;26.50;52.50;;;;;;6132641;28;80404;-67
2021/07/01 00:22:29;;;;;;;6.53;4.30;;;26.50;52.40;;;;;;6139370;28;81028;-67
2021/07/01 00:25:29;;;;;;;6.13;4.22;;;26.50;52.40;;;;;;6136638;28;81862;-67
2021/07/01 00:28:30;;;;;;;5.65;3.95;;;26.50;52.30;;;;;;6136501;28;80452;-68
2021/07/01 00:31:31;;;;;;;5.88;4.13;;;26.50;52.40;;;;;;6128796;28;80343;-68
2021/07/01 00:34:34;;;;;;;6.30;4.43;;;26.50;52.40;;;;;;6141917;28;80347;-68
2021/07/01 00:37:34;;;;;;;6.35;4.22;;;26.40;52.50;;;;;;6133687;28;80609;-68
2021/07/01 00:40:35;;;;;;;6.63;4.13;;;26.40;53.20;;;;;;6127720;28;83421;-68
2021/07/01 00:43:36;;;;;;;7.93;4.75;;;26.40;52.50;;;;;;6130685;28;81430;-68
2021/07/01 00:46:36;;;;;;;5.15;4.05;;;26.40;52.70;;;;;;6121125;28;83148;-67
2021/07/01 00:49:37;;;;;;;5.80;4.47;;;26.40;52.70;;;;;;6131729;28;82552;-68
2021/07/01 00:52:38;;;;;;;5.65;3.83;;;26.30;52.40;;;;;;6115618;28;83733;-67
2021/07/01 00:55:38;;;;;;;5.50;4.28;;;26.30;52.50;;;;;;6128433;28;80432;-68
2021/07/01 00:58:39;;;;;;;10.00;4.53;;;26.40;52.50;;;;;;6129618;28;83833;-68
2021/07/01 01:01:40;;;;;;;7.82;4.10;;;26.40;52.60;;;;;;6131543;28;80472;-68
2021/07/01 01:04:41;;;;;;;6.60;4.30;;;26.40;52.80;;;;;;6133701;28;81837;-68
2021/07/01 01:07:42;;;;;;;10.02;4.60;;;26.30;52.70;;;;;;6136031;28;80320;-69
2021/07/01 01:10:42;;;;;;;6.30;4.25;;;26.30;52.80;;;;;;6129625;28;83378;-68
2021/07/01 01:14:06;;;;;;;10.15;4.22;;;26.30;52.80;;;;;;6124641;28;81343;-68
2021/07/01 01:17:06;;;;;;;5.43;4.18;;;26.30;52.70;;;;;;6133469;28;81123;-67
2021/07/01 01:20:07;;;;;;;7.25;4.47;;;26.30;52.70;;;;;;6129315;28;83318;-68
2021/07/01 01:23:14;;;;;;;5.07;4.00;;;26.30;52.70;;;;;;6122932;28;81556;-68
2021/07/01 01:26:15;;;;;;;5.88;4.47;;;26.30;52.70;;;;;;6131954;28;82562;-67
2021/07/01 01:29:21;;;;;;;7.00;4.17;;;26.30;52.70;;;;;;6132385;28;83527;-67
2021/07/01 01:32:21;;;;;;;10.25;4.60;;;26.30;52.70;;;;;;6126758;28;83054;-67
2021/07/01 01:35:22;;;;;;;5.85;3.95;;;26.20;52.70;;;;;;6131662;28;83410;-68
2021/07/01 01:38:22;;;;;;;8.98;4.88;;;26.20;52.60;;;;;;6134914;28;80498;-67
2021/07/01 01:41:23;;;;;;;9.10;5.18;;;26.20;52.70;;;;;;6132369;28;81232;-68
2021/07/01 01:44:24;;;;;;;12.02;6.15;;;26.20;52.90;;;;;;6125913;28;81678;-68
2021/07/01 01:47:25;;;;;;;10.55;6.57;;;26.10;52.70;;;;;;6133421;28;84214;-68
2021/07/01 01:50:26;;;;;;;8.40;6.25;;;26.10;52.70;;;;;;6132722;28;81958;-67
2021/07/01 01:53:26;;;;;;;8.55;6.75;;;26.10;52.70;;;;;;6128378;28;83069;-67
2021/07/01 01:56:36;;;;;;;9.80;7.13;;;26.10;52.70;;;;;;6132967;28;80410;-68
2021/07/01 01:59:39;;;;;;;8.77;5.93;;;26.10;52.80;;;;;;6129353;28;80328;-68
2021/07/01 02:02:58;;;;;;;7.13;5.70;;;26.10;52.60;;;;;;6127026;28;84640;-68
2021/07/01 02:06:34;;;;;;;10.07;5.85;;;26.10;52.60;;;;;;6133799;28;82900;-68
2021/07/01 02:09:34;;;;;;;18.58;6.03;;;26.10;52.70;;;;;;6135010;28;80992;-68
2021/07/01 02:12:35;;;;;;;10.60;5.82;;;26.10;52.60;;;;;;6131860;28;82781;-67
2021/07/01 02:15:38;;;;;;;8.40;5.75;;;26.10;52.80;;;;;;6135508;28;82442;-67
2021/07/01 02:18:39;;;;;;;9.55;6.60;;;26.10;52.60;;;;;;6126271;28;83117;-67
2021/07/01 02:21:39;;;;;;;11.50;5.47;;;26.10;52.70;;;;;;6131808;28;81701;-67
2021/07/01 02:24:40;;;;;;;11.73;5.43;;;26.10;52.80;;;;;;6144814;28;83172;-67
2021/07/01 02:27:41;;;;;;;8.25;6.07;;;26.10;52.70;;;;;;6134240;28;83653;-67
2021/07/01 02:30:42;;;;;;;6.35;4.80;;;26.10;52.70;;;;;;6136154;28;82663;-67
2021/07/01 02:33:43;;;;;;;6.35;5.05;;;26.10;52.80;;;;;;6136191;28;83066;-67
2021/07/01 02:36:44;;;;;;;7.38;5.03;;;26.10;52.80;;;;;;6136710;28;83527;-68
2021/07/01 02:40:09;;;;;;;6.78;5.05;;;26.10;52.90;;;;;;6129259;28;80480;-68
2021/07/01 02:43:25;;;;;;;7.15;5.18;;;26.10;53.00;;;;;;6134509;28;83075;-68
2021/07/01 02:46:48;;;;;;;5.88;4.15;;;26.10;53.20;;;;;;6131481;28;81159;-68
2021/07/01 02:49:57;;;;;;;7.60;4.88;;;26.20;53.00;;;;;;6131424;28;83190;-67
2021/07/01 02:53:06;;;;;;;6.55;5.05;;;26.20;53.00;;;;;;6133117;28;80838;-67
2021/07/01 02:56:06;;;;;;;6.90;5.13;;;26.10;53.30;;;;;;6130996;28;82309;-67
2021/07/01 02:59:09;;;;;;;9.65;5.03;;;26.10;53.30;;;;;;6125805;28;81872;-67
2021/07/01 03:02:28;;;;;;;8.00;4.85;;;26.10;53.20;;;;;;6131752;28;80641;-67
2021/07/01 03:05:43;;;;;;;8.85;4.47;;;26.00;53.10;;;;;;6128299;28;82258;-67
2021/07/01 03:08:44;;;;;;;10.32;5.38;;;26.00;53.20;;;;;;6126080;28;82470;-67
2021/07/01 03:11:45;;;;;;;6.70;4.90;;;26.00;53.30;;;;;;6131253;28;80547;-68
2021/07/01 03:14:46;;;;;;;6.07;4.63;;;26.10;53.30;;;;;;6132191;28;80595;-68
2021/07/01 03:17:46;;;;;;;9.95;4.50;;;26.10;53.30;;;;;;6132975;28;83663;-68
2021/07/01 03:20:47;;;;;;;6.13;4.13;;;26.10;53.20;;;;;;6135714;28;82936;-67
2021/07/01 03:23:59;;;;;;;5.70;4.43;;;26.10;53.10;;;;;;6135944;28;80422;-67
2021/07/01 03:27:01;;;;;;;7.05;4.72;;;26.10;53.10;;;;;;6132958;28;81772;-67
2021/07/01 03:30:01;;;;;;;6.18;4.45;;;26.10;53.10;;;;;;6132753;28;83190;-67
2021/07/01 03:33:02;;;;;;;5.72;4.35;;;26.10;53.00;;;;;;6124994;28;81335;-67
2021/07/01 03:36:03;;;;;;;7.50;4.30;;;26.10;53.00;;;;;;6132713;28;82667;-68
2021/07/01 03:39:22;;;;;;;7.18;3.75;;;26.10;53.00;;;;;;6127603;28;80524;-68
2021/07/01 03:42:28;;;;;;;8.68;4.78;;;26.10;53.10;;;;;;6134423;28;82410;-66
2021/07/01 03:45:29;;;;;;;7.00;4.53;;;26.10;53.10;;;;;;6132920;28;83496;-67
2021/07/01 03:48:29;;;;;;;7.43;4.22;;;26.10;53.20;;;;;;6128744;28;80814;-67
2021/07/01 03:51:56;;;;;;;6.43;4.68;;;26.10;53.10;;;;;;6107241;28;80674;-66
2021/07/01 03:55:05;;;;;;;6.32;4.25;;;26.10;53.10;;;;;;6126950;28;81767;-67
2021/07/01 03:58:05;;;;;;;6.53;4.63;;;26.00;53.20;;;;;;6133788;28;83197;-67
2021/07/01 04:01:07;;;;;;;7.75;4.47;;;26.00;53.30;;;;;;6132449;28;83400;-68
2021/07/01 04:04:08;;;;;;;12.00;4.68;;;26.00;53.50;;;;;;6128337;28;80660;-67
2021/07/01 04:07:10;;;;;;;10.68;6.28;;;26.00;53.50;;;;;;6133130;28;82910;-67
2021/07/01 04:10:18;;;;;;;10.30;7.00;;;26.00;53.60;;;;;;6124106;28;83417;-67
2021/07/01 04:13:39;;;;;;;10.73;5.85;;;25.90;53.60;;;;;;6130480;28;81524;-62
2021/07/01 04:16:58;;;;;;;8.43;4.72;;;25.90;53.70;;;;;;6127530;28;80593;-66
2021/07/01 04:20:37;;;;;;;7.65;5.30;;;25.90;53.80;;;;;;6036923;28;80400;-66
2021/07/01 04:23:55;;;;;;;5.82;4.55;;;25.90;53.80;;;;;;6064675;28;83594;-66
2021/07/01 04:27:14;;;;;;;9.13;4.55;;;26.00;53.70;;;;;;6120866;28;80411;-65
2021/07/01 04:30:15;;;;;;;6.65;4.70;;;26.10;53.70;;;;;;6119914;28;80128;-65
2021/07/01 04:33:54;;;;;;;11.50;4.68;;;26.10;53.70;;;;;;6130384;28;81233;-65
2021/07/01 04:36:54;;;;;;;8.63;4.03;;;26.20;53.80;;;;;;6139121;28;83190;-66
2021/07/01 04:39:57;;;;;;;6.88;5.10;;;26.30;53.90;;;;;;6130622;28;83156;-64
2021/07/01 04:43:09;;;;;;;5.80;4.63;;;26.30;53.90;;;;;;6127792;28;81795;-66
2021/07/01 04:46:10;;;;;;;8.43;4.70;;;26.30;53.70;;;;;;6122508;28;82860;-66
2021/07/01 04:49:10;;;;;;;7.43;4.68;;;26.30;54.50;;;;;;6122246;28;81627;-64
2021/07/01 04:52:30;;;;;;;8.80;5.13;;;26.30;54.10;;;;;;6113108;28;80607;-65
2021/07/01 04:55:49;;;;;;;8.95;5.65;;;26.30;54.80;;;;;;6119279;28;80579;-65
2021/07/01 04:59:08;;;;;;;7.28;4.50;;;26.30;54.20;;;;;;6133844;28;80522;-66
2021/07/01 05:02:29;;;;;;;5.43;4.30;;;26.30;54.90;;;;;;6092114;28;81446;-65
2021/07/01 05:05:48;;;;;;;6.63;4.80;;;26.40;55.10;;;;;;6131442;28;85774;-65
2021/07/01 05:08:51;;;;;;;10.10;5.38;;;26.40;56.80;;;;;;6131110;28;83091;-64
2021/07/01 05:11:52;;;;;;;6.45;4.78;;;26.40;56.10;;;;;;6130711;28;80317;-64
2021/07/01 05:14:53;;;;;;;7.95;5.28;;;26.40;56.90;;;;;;6127316;28;83626;-64
2021/07/01 05:17:53;;;;;;;9.65;5.80;;;26.40;56.60;;;;;;6123158;28;80689;-67
2021/07/01 05:20:55;;;;;;;8.68;4.75;;;26.40;56.00;;;;;;6112376;28;82469;-66
2021/07/01 05:24:14;;;;;;;10.77;4.85;;;26.40;55.90;;;;;;6131339;28;80632;-67
2021/07/01 05:27:33;;;;;;;11.15;4.90;;;26.50;56.30;;;;;;6127202;28;80416;-67
2021/07/01 05:30:52;;;;;;;12.65;5.72;;;26.50;57.30;;;;;;6127453;28;81003;-68
2021/07/01 05:34:27;;;;;;;12.55;6.28;;;26.40;56.90;;;;;;6062432;28;81497;-65
2021/07/01 05:37:28;;;;;;;18.65;6.35;;;26.40;56.50;;;;;;6137142;28;84105;-62
2021/07/01 05:40:34;;;;;;;12.85;6.18;;;26.30;56.40;;;;;;6136224;28;80740;-63
2021/07/01 05:43:34;;;;;;;7.60;5.47;;;26.30;56.40;;;;;;6135175;28;81890;-67
2021/07/01 05:46:37;;;;;;;9.48;5.53;;;26.20;56.40;;;;;;6133277;28;81612;-66
2021/07/01 05:49:38;;;;;;;16.27;6.03;;;26.30;56.40;;;;;;6135612;28;81114;-65
2021/07/01 05:52:41;;;;;;;11.38;5.57;;;26.20;56.30;;;;;;6164513;28;83396;-65
2021/07/01 05:55:41;;;;;;;9.35;5.32;;;26.20;56.20;;;;;;6135447;28;80881;-64
2021/07/01 05:58:42;;;;;;;13.18;6.57;;;26.20;56.00;;;;;;6131610;28;81831;-64
2021/07/01 06:01:42;;;;;;;11.25;5.70;;;26.20;56.00;;;;;;6134462;28;80188;-63
2021/07/01 06:04:43;;;;;;;12.30;5.28;;;26.10;55.70;;;;;;6133891;28;80296;-66
2021/07/01 06:08:06;;;;;;;11.95;6.38;;;26.10;55.60;;;;;;6102600;28;81239;-66
2021/07/01 06:11:07;;;;;;;9.30;5.90;;;26.10;55.80;;;;;;6133626;28;80390;-65
2021/07/01 06:14:07;;;;;;;12.10;7.68;;;26.10;55.80;;;;;;6130163;28;81004;-65
2021/07/01 06:17:08;;;;;;;10.35;6.53;;;26.10;55.90;;;;;;6132811;28;80886;-65
2021/07/01 06:20:09;;;;;;;16.65;7.05;;;26.10;55.70;;;;;;6137056;28;80488;-64
2021/07/01 06:23:09;;;;;;;10.45;5.88;;;26.10;55.60;;;;;;6125707;28;80453;-65
2021/07/01 06:26:10;;;;;;;10.18;5.95;;;26.10;55.90;;;;;;6133723;28;80520;-66
2021/07/01 06:29:11;;;;;;;10.30;6.30;;;26.10;55.70;;;;;;6105749;28;82872;-65
2021/07/01 06:32:12;;;;;;;11.45;5.55;;;26.10;56.00;;;;;;6110797;28;80398;-65
2021/07/01 06:35:12;;;;;;;11.75;5.18;;;26.10;56.00;;;;;;6125936;28;80577;-66
2021/07/01 06:38:13;;;;;;;10.05;4.88;;;26.10;55.80;;;;;;6130102;28;80518;-66
2021/07/01 06:41:32;;;;;;;8.07;5.00;;;26.00;55.70;;;;;;6128952;28;81916;-68
2021/07/01 06:45:10;;;;;;;11.32;5.20;;;26.00;55.90;;;;;;6136595;28;84932;-67
2021/07/01 06:48:29;;;;;;;18.35;9.68;;;26.10;56.00;;;;;;6113296;28;80387;-66
2021/07/01 06:51:48;;;;;;;13.02;7.28;;;26.00;55.90;;;;;;6111403;28;80822;-66
2021/07/01 06:55:27;;;;;;;11.00;6.93;;;26.00;55.80;;;;;;6015286;29;80880;-66
2021/07/01 06:58:36;;;;;;;9.00;6.32;;;26.00;55.90;;;;;;6028700;28;81558;-66
2021/07/01 07:01:37;;;;;;;11.25;6.00;;;26.00;55.90;;;;;;6120680;28;80752;-66
2021/07/01 07:04:37;;;;;;;13.93;5.55;;;26.00;56.10;;;;;;6129419;28;80707;-66
2021/07/01 07:07:38;;;;;;;8.23;5.55;;;25.90;56.10;;;;;;6131512;28;82515;-66
2021/07/01 07:10:40;;;;;;;11.05;5.50;;;25.90;56.30;;;;;;6127698;28;81204;-66
2021/07/01 07:13:41;;;;;;;7.78;5.38;;;25.90;56.20;;;;;;6131889;28;80763;-64
2021/07/01 07:16:42;;;;;;;14.23;8.27;;;26.00;56.30;;;;;;6134585;28;81727;-66
2021/07/01 07:19:42;;;;;;;16.45;8.00;;;26.00;56.20;;;;;;6131966;28;81077;-63
2021/07/01 07:22:43;;;;;;;8.90;6.38;;;26.00;56.30;;;;;;6133665;28;81266;-64
2021/07/01 07:25:43;;;;;;;13.88;7.05;;;26.00;56.30;;;;;;6129781;28;80768;-65
2021/07/01 07:28:44;;;;;;;11.98;6.72;;;26.10;56.50;;;;;;6131362;28;80781;-65
2021/07/01 07:31:45;;;;;;;9.50;5.93;;;26.10;56.40;;;;;;6131283;28;80763;-65
2021/07/01 07:34:45;;;;;;;8.43;5.60;;;26.10;56.30;;;;;;6129728;28;80467;-65
2021/07/01 07:37:46;;;;;;;11.57;6.90;;;26.10;57.20;;;;;;6134123;28;81792;-65
2021/07/01 07:40:49;;;;;;;17.00;7.35;;;26.10;55.80;;;;;;6129911;28;80392;-66
2021/07/01 07:43:50;;;;;;;12.45;6.38;;;26.10;55.90;;;;;;6132332;28;81605;-66
2021/07/01 07:46:51;;;;;;;12.85;6.88;;;26.10;55.90;;;;;;6133946;28;80815;-66
2021/07/01 07:49:51;;;;;;;10.57;5.97;;;26.10;55.90;;;;;;6128723;28;86930;-66
2021/07/01 07:52:52;;;;;;;10.32;5.60;;;26.10;56.00;;;;;;6133035;28;80418;-64
2021/07/01 07:55:53;;;;;;;11.05;6.13;;;26.10;55.60;;;;;;6132885;28;80421;-65
2021/07/01 07:58:53;;;;;;;10.10;5.53;;;26.10;55.40;;;;;;6137113;28;80546;-64
2021/07/01 08:01:54;;;;;;;14.60;8.68;;;26.10;55.40;;;;;;6131376;28;80371;-68
2021/07/01 08:04:54;;;;;;;11.43;7.35;;;26.10;55.30;;;;;;6132063;28;80958;-67
2021/07/01 08:07:54;;;;;;;14.05;6.38;;;26.10;55.20;;;;;;6132851;28;80760;-66
2021/07/01 08:10:55;;;;;;;12.00;6.25;;;26.10;55.10;;;;;;6131568;28;80795;-66
2021/07/01 08:13:59;;;;;;;14.15;6.07;;;26.10;54.60;;;;;;6132973;28;81800;-66
2021/07/01 08:16:59;;;;;;;11.00;5.47;;;26.00;54.30;;;;;;6133398;28;80692;-66
2021/07/01 08:20:00;;;;;;;10.10;6.03;;;26.00;54.20;;;;;;6131026;28;81598;-67
2021/07/01 08:23:00;;;;;;;13.85;5.63;;;26.00;54.40;;;;;;6132172;28;81202;-67
2021/07/01 08:26:01;;;;;;;12.07;6.70;;;26.00;54.40;;;;;;6131065;28;80843;-67
2021/07/01 08:29:02;;;;;;;11.52;6.70;;;26.00;54.60;;;;;;6129424;28;81871;-66
2021/07/01 08:32:05;;;;;;;12.75;6.40;;;26.00;54.80;;;;;;6128970;28;80913;-67
2021/07/01 08:35:06;;;;;;;13.20;6.32;;;26.00;54.90;;;;;;6127424;28;81579;-66
2021/07/01 08:38:08;;;;;;;12.82;6.60;;;26.00;54.80;;;;;;6128853;28;80527;-67
2021/07/01 08:41:09;;;;;;;12.32;6.80;;;26.10;54.90;;;;;;6120462;28;80425;-63
2021/07/01 08:44:10;;;;;;;22.35;7.43;;;26.00;54.60;;;;;;6129399;28;80310;-67
2021/07/01 08:47:11;;;;;;;15.77;6.90;;;26.10;55.00;;;;;;6106882;28;80491;-67
2021/07/01 08:50:11;;;;;;;11.75;6.57;;;26.10;54.80;;;;;;6107118;28;80725;-67
2021/07/01 08:53:12;;;;;;;19.33;6.85;;;26.10;54.70;;;;;;6101453;28;81660;-67
2021/07/01 08:56:12;;;;;;;19.08;7.53;;;26.10;54.80;;;;;;6108294;28;81490;-67
2021/07/01 08:59:13;;;;;;;14.32;6.70;;;26.10;54.90;;;;;;6107276;28;80471;-66
2021/07/01 09:02:13;;;;;;;17.77;8.00;;;26.10;54.80;;;;;;6107789;28;80648;-67
2021/07/01 09:05:15;;;;;;;13.80;7.10;;;26.10;55.00;;;;;;6124222;28;80924;-67
2021/07/01 09:08:16;;;;;;;12.05;6.45;;;26.10;54.70;;;;;;6132455;28;80913;-66
2021/07/01 09:11:17;;;;;;;15.73;6.90;;;26.10;54.80;;;;;;6132198;28;80485;-66
2021/07/01 09:14:17;;;;;;;11.48;6.30;;;26.10;54.30;;;;;;6132901;28;80373;-67
2021/07/01 09:17:18;;;;;;;11.02;6.30;;;26.10;54.00;;;;;;6130482;28;80663;-67
2021/07/01 09:20:19;;;;;;;15.88;6.82;;;26.10;53.70;;;;;;6131514;28;80353;-65
2021/07/01 09:23:19;;;;;;;14.70;6.40;;;26.10;53.80;;;;;;6128823;28;82322;-66
2021/07/01 09:26:20;;;;;;;13.05;5.50;;;26.10;53.80;;;;;;6125085;28;81492;-66
2021/07/01 09:29:20;;;;;;;11.70;5.82;;;26.10;54.00;;;;;;6124257;28;80599;-67
2021/07/01 09:32:21;;;;;;;16.10;5.45;;;26.10;53.90;;;;;;6128358;28;80991;-68
2021/07/01 09:35:22;;;;;;;18.50;5.60;;;26.10;54.10;;;;;;6127182;28;80640;-68
2021/07/01 09:38:22;;;;;;;16.10;5.28;;;26.10;53.90;;;;;;6109792;28;80285;-68
2021/07/01 09:41:23;;;;;;;14.25;4.75;;;26.10;53.90;;;;;;6103853;28;80500;-67
2021/07/01 09:44:24;;;;;;;11.82;4.72;;;26.20;53.60;;;;;;6127922;28;82101;-67
2021/07/01 09:47:26;;;;;;;11.80;3.95;;;26.20;53.60;;;;;;6132564;28;81051;-67
2021/07/01 09:50:27;;;;;;;8.88;3.65;;;26.20;53.10;;;;;;6129538;28;80415;-67
2021/07/01 09:53:28;;;;;;;14.32;4.35;;;26.20;53.30;;;;;;6122981;28;81444;-66
2021/07/01 09:56:36;;;;;;;7.18;3.20;;;26.30;53.40;;;;;;6132367;28;81198;-67
2021/07/01 09:59:37;;;;;;;12.82;3.63;;;26.30;53.20;;;;;;6107195;28;80809;-65
2021/07/01 10:02:37;;;;;;;5.43;3.22;;;26.30;52.70;;;;;;6106527;28;80727;-66
2021/07/01 10:05:38;;;;;;;8.88;3.30;;;26.30;53.00;;;;;;6119406;28;80445;-66
2021/07/01 10:08:38;;;;;;;6.55;3.10;;;26.30;52.70;;;;;;6132649;28;80502;-67
2021/07/01 10:11:39;;;;;;;8.52;3.25;;;26.30;52.60;;;;;;6128208;28;80861;-67
2021/07/01 10:14:40;;;;;;;6.93;3.40;;;26.30;52.80;;;;;;6129590;28;80608;-67
2021/07/01 10:17:40;;;;;;;9.82;3.60;;;26.30;52.60;;;;;;6130183;28;81300;-66
2021/07/01 10:20:41;;;;;;;8.88;3.15;;;26.40;52.60;;;;;;6136621;28;81621;-67
2021/07/01 10:23:42;;;;;;;13.25;4.25;;;26.40;52.50;;;;;;6136537;28;80413;-66
2021/07/01 10:26:42;;;;;;;19.08;4.55;;;26.30;52.70;;;;;;6132247;28;81523;-66
2021/07/01 10:29:43;;;;;;;12.43;3.75;;;26.30;52.90;;;;;;6139945;28;81015;-67
2021/07/01 10:32:43;;;;;;;14.68;4.53;;;26.30;52.90;;;;;;6132758;28;83447;-67
2021/07/01 10:35:44;;;;;;;9.25;4.00;;;26.30;53.00;;;;;;6135661;28;80844;-68
2021/07/01 10:38:44;;;;;;;17.33;4.00;;;26.30;53.70;;;;;;6126290;28;81068;-67
2021/07/01 10:41:45;;;;;;;10.73;4.60;;;26.30;53.40;;;;;;6132169;28;81636;-66
2021/07/01 10:44:45;;;;;;;14.88;3.65;;;26.30;53.40;;;;;;6135750;28;81731;-68
2021/07/01 10:47:46;;;;;;;11.05;4.00;;;26.30;53.10;;;;;;6134856;28;81843;-67
2021/07/01 10:50:46;;;;;;;8.50;4.20;;;26.30;53.10;;;;;;6132121;28;86807;-67
2021/07/01 10:53:47;;;;;;;10.38;3.67;;;26.30;53.00;;;;;;6131686;28;80899;-67
2021/07/01 10:56:48;;;;;;;18.55;4.13;;;26.30;53.10;;;;;;6129991;28;80960;-67
2021/07/01 10:59:49;;;;;;;14.48;4.13;;;26.30;53.10;;;;;;6135895;28;80804;-68
2021/07/01 11:02:49;;;;;;;10.80;4.40;;;26.40;53.30;;;;;;6131827;28;83897;-69
2021/07/01 11:05:50;;;;;;;7.03;3.67;;;26.40;53.20;;;;;;6131097;28;80216;-69
2021/07/01 11:08:50;;;;;;;8.93;3.40;;;26.40;53.00;;;;;;6132621;28;81295;-69
2021/07/01 11:11:51;;;;;;;6.38;3.40;;;26.40;52.90;;;;;;6138907;28;80481;-69
2021/07/01 11:14:52;;;;;;;12.63;4.00;;;26.50;52.90;;;;;;6135912;28;80832;-70
2021/07/01 11:17:53;;;;;;;9.85;2.80;;;26.50;53.00;;;;;;6133688;28;81482;-68
2021/07/01 11:20:53;;;;;;;7.50;4.53;;;26.50;53.00;;;;;;6132967;28;80525;-68
2021/07/01 11:23:54;;;;;;;9.35;4.15;;;26.50;53.10;;;;;;6132307;28;80385;-68
2021/07/01 11:26:54;;;;;;;6.90;4.20;;;26.50;53.30;;;;;;6133029;28;81105;-68
2021/07/01 11:29:55;;;;;;;8.68;3.88;;;26.50;53.30;;;;;;6131260;28;81592;-69
2021/07/01 11:32:56;;;;;;;6.78;3.72;;;26.60;53.60;;;;;;6129671;28;81299;-68
2021/07/01 11:35:56;;;;;;;6.70;3.70;;;26.50;53.60;;;;;;6128525;28;87458;-67
2021/07/01 11:38:57;;;;;;;6.55;3.63;;;26.50;53.90;;;;;;6137693;28;81311;-68
2021/07/01 11:41:57;;;;;;;6.43;3.42;;;26.60;54.00;;;;;;6134531;28;80121;-67
2021/07/01 11:44:58;;;;;;;9.70;4.70;;;26.50;54.00;;;;;;6132957;28;80739;-68
2021/07/01 11:48:00;;;;;;;7.53;4.03;;;26.50;54.50;;;;;;6135367;28;80337;-68
2021/07/01 11:51:00;;;;;;;7.05;4.18;;;26.50;54.50;;;;;;6135324;28;80360;-69
2021/07/01 11:54:01;;;;;;;6.95;3.42;;;26.60;54.50;;;;;;6135723;28;80484;-69
2021/07/01 11:57:01;;;;;;;8.98;4.32;;;26.60;54.30;;;;;;6133935;28;81388;-68
2021/07/01 12:00:02;;;;;;;6.07;3.72;;;26.70;54.50;;;;;;6131523;28;82224;-67
2021/07/01 12:03:12;;;;;;;6.00;3.50;;;26.70;54.30;;;;;;6134428;28;80415;-66
2021/07/01 12:06:12;;;;;;;4.88;3.35;;;26.70;54.40;;;;;;6134270;28;81178;-67
2021/07/01 12:09:13;;;;;;;6.00;3.65;;;26.70;54.80;;;;;;6132552;28;81531;-67
2021/07/01 12:12:14;;;;;;;6.38;3.47;;;26.70;55.10;;;;;;6131341;28;82319;-67
2021/07/01 12:15:14;;;;;;;7.53;3.30;;;26.70;55.40;;;;;;6135667;28;80807;-67
2021/07/01 12:18:16;;;;;;;8.68;3.35;;;26.70;55.80;;;;;;6129715;28;80305;-67
2021/07/01 12:21:17;;;;;;;7.53;3.72;;;26.70;55.20;;;;;;6129400;28;80534;-65
2021/07/01 12:24:17;;;;;;;9.40;3.80;;;26.70;55.10;;;;;;6127376;28;80338;-64
2021/07/01 12:27:18;;;;;;;6.70;3.13;;;26.60;54.20;;;;;;6102534;28;82301;-67
2021/07/01 12:30:18;;;;;;;7.13;4.20;;;26.60;54.30;;;;;;6099587;28;80621;-68
2021/07/01 12:33:19;;;;;;;7.45;3.13;;;26.50;54.00;;;;;;6104772;28;80546;-67
2021/07/01 12:36:19;;;;;;;7.05;3.75;;;26.50;54.30;;;;;;6107912;28;80454;-66
2021/07/01 12:39:20;;;;;;;10.27;3.58;;;26.50;54.40;;;;;;6106644;28;81237;-65
2021/07/01 12:42:21;;;;;;;6.00;3.63;;;26.50;54.00;;;;;;6110019;28;80734;-67
2021/07/01 12:45:21;;;;;;;5.15;2.92;;;26.40;54.10;;;;;;6129922;28;80468;-67
2021/07/01 12:48:22;;;;;;;3.85;2.67;;;26.40;53.90;;;;;;6135412;28;80760;-68
2021/07/01 12:51:22;;;;;;;3.72;2.88;;;26.50;53.90;;;;;;6131864;28;80524;-67
2021/07/01 12:54:23;;;;;;;4.85;3.00;;;26.50;53.90;;;;;;6127018;28;80677;-61
2021/07/01 12:57:24;;;;;;;7.15;3.10;;;26.50;54.10;;;;;;6126697;28;80677;-63
2021/07/01 13:00:24;;;;;;;5.15;3.92;;;26.60;54.20;;;;;;6126464;28;81088;-65
2021/07/01 13:03:27;;;;;;;7.53;4.22;;;26.50;53.30;;;;;;6132193;28;80493;-65
2021/07/01 13:06:28;;;;;;;4.50;3.40;;;26.50;53.50;;;;;;6133227;28;80476;-64
2021/07/01 13:09:28;;;;;;;3.58;2.90;;;26.50;54.00;;;;;;6131118;28;81001;-66
2021/07/01 13:12:32;;;;;;;8.02;3.50;;;26.60;53.80;;;;;;6130645;28;80561;-64
2021/07/01 13:15:32;;;;;;;5.50;2.90;;;26.70;53.80;;;;;;6129123;28;80900;-65
2021/07/01 13:18:33;;;;;;;3.65;2.85;;;26.70;53.80;;;;;;6128217;28;80490;-64
2021/07/01 13:21:33;;;;;;;7.40;2.63;;;26.70;54.10;;;;;;6132011;28;80881;-64
2021/07/01 13:24:34;;;;;;;3.28;2.90;;;26.70;54.00;;;;;;6133000;28;81059;-64
2021/07/01 13:27:34;;;;;;;3.90;3.15;;;26.70;54.20;;;;;;6132716;28;83277;-65
2021/07/01 13:30:35;;;;;;;4.35;2.85;;;26.70;54.20;;;;;;6132511;28;80490;-65
2021/07/01 13:33:35;;;;;;;3.17;2.75;;;26.60;54.10;;;;;;6130665;28;82019;-65
2021/07/01 13:36:36;;;;;;;5.40;2.50;;;26.70;53.90;;;;;;6131748;28;81560;-65
2021/07/01 13:39:36;;;;;;;4.25;2.53;;;26.60;53.90;;;;;;6127292;28;80959;-65
2021/07/01 13:42:37;;;;;;;2.63;2.40;;;26.60;53.70;;;;;;6130864;28;80514;-64
2021/07/01 13:45:37;;;;;;;11.65;2.58;;;26.70;53.70;;;;;;6131121;28;80094;-64
2021/07/01 13:48:40;;;;;;;5.05;2.70;;;26.70;53.60;;;;;;6131064;28;81266;-66
2021/07/01 13:51:40;;;;;;;3.50;2.25;;;26.80;53.20;;;;;;6131075;28;81889;-64
2021/07/01 13:54:41;;;;;;;3.45;2.50;;;26.70;52.90;;;;;;6137063;28;80496;-65
2021/07/01 13:57:41;;;;;;;4.38;2.22;;;26.80;52.90;;;;;;6133091;28;87704;-65
2021/07/01 14:00:42;;;;;;;3.63;2.40;;;26.80;52.50;;;;;;6111181;28;80382;-65
2021/07/01 14:03:43;;;;;;;2.83;2.38;;;26.80;52.40;;;;;;6121141;28;80609;-65
2021/07/01 14:06:44;;;;;;;3.15;2.33;;;26.80;52.90;;;;;;6138736;28;82429;-64
2021/07/01 14:09:44;;;;;;;3.08;2.55;;;26.80;52.40;;;;;;6135073;28;82054;-66
2021/07/01 14:12:45;;;;;;;2.72;2.33;;;26.80;52.70;;;;;;6137519;28;81977;-62
2021/07/01 14:15:45;;;;;;;4.85;2.58;;;26.80;52.40;;;;;;6137924;28;80943;-64
2021/07/01 14:18:46;;;;;;;3.88;2.78;;;26.90;51.70;;;;;;6137515;28;81991;-64
2021/07/01 14:21:48;;;;;;;5.03;2.53;;;26.80;51.80;;;;;;6136488;28;80888;-63
2021/07/01 14:24:49;;;;;;;4.13;2.40;;;26.80;51.90;;;;;;6135845;28;80438;-61
2021/07/01 14:27:50;;;;;;;5.47;2.47;;;26.80;51.80;;;;;;6135676;28;82007;-61
2021/07/01 14:30:50;;;;;;;2.40;2.20;;;26.90;52.00;;;;;;6135084;28;83532;-63
2021/07/01 14:33:51;;;;;;;4.60;2.55;;;26.90;52.00;;;;;;6132734;28;81471;-64
2021/07/01 14:36:56;;;;;;;2.83;2.22;;;26.90;52.60;;;;;;6136973;28;81889;-65
2021/07/01 14:39:56;;;;;;;3.50;2.35;;;26.90;52.40;;;;;;6130005;28;87321;-65
2021/07/01 14:42:57;;;;;;;2.55;2.28;;;26.90;52.40;;;;;;6132494;28;80488;-65
2021/07/01 14:45:57;;;;;;;2.83;2.53;;;26.90;52.20;;;;;;6134778;28;81091;-64
2021/07/01 14:48:58;;;;;;;2.45;2.22;;;26.90;52.70;;;;;;6136967;28;80909;-67
2021/07/01 14:51:58;;;;;;;4.72;2.38;;;26.90;52.00;;;;;;6134939;28;81039;-66
2021/07/01 14:55:02;;;;;;;6.72;2.50;;;26.90;52.30;;;;;;6132370;28;80617;-65
2021/07/01 14:58:03;;;;;;;10.40;2.50;;;26.90;52.00;;;;;;6130574;28;81499;-65
2021/07/01 15:01:04;;;;;;;4.63;2.53;;;26.90;52.20;;;;;;6137219;28;81652;-65
2021/07/01 15:04:04;;;;;;;6.65;2.30;;;26.90;51.80;;;;;;6121746;28;81955;-65
2021/07/01 15:07:05;;;;;;;8.75;2.38;;;26.90;51.80;;;;;;6135989;28;81360;-65
2021/07/01 15:10:05;;;;;;;6.05;2.25;;;26.90;51.90;;;;;;6133068;28;81610;-65
2021/07/01 15:13:06;;;;;;;3.03;2.40;;;26.90;51.80;;;;;;6130316;28;80506;-65
2021/07/01 15:16:06;;;;;;;6.63;2.35;;;26.90;51.80;;;;;;6129358;28;81608;-65
2021/07/01 15:19:07;;;;;;;3.42;2.13;;;26.90;51.60;;;;;;6135155;28;80576;-65
2021/07/01 15:22:08;;;;;;;3.38;2.33;;;26.90;51.60;;;;;;6133127;28;81479;-65
2021/07/01 15:25:08;;;;;;;3.80;2.47;;;26.90;51.40;;;;;;6127310;28;81360;-65
2021/07/01 15:28:09;;;;;;;2.63;2.00;;;26.90;51.50;;;;;;6124123;28;80518;-65
2021/07/01 15:31:10;;;;;;;4.88;2.53;;;26.90;51.50;;;;;;6130947;28;81202;-65
2021/07/01 15:34:11;;;;;;;3.47;2.10;;;26.90;51.40;;;;;;6134622;28;81629;-65
2021/07/01 15:37:12;;;;;;;4.20;1.98;;;26.90;51.40;;;;;;6126819;28;81408;-65
2021/07/01 15:40:12;;;;;;;3.45;2.45;;;26.90;51.30;;;;;;6139609;28;81526;-65
2021/07/01 15:43:14;;;;;;;4.45;1.80;;;26.90;51.20;;;;;;6132594;28;81667;-65
2021/07/01 15:46:14;;;;;;;2.40;2.10;;;26.90;51.20;;;;;;6151316;28;83641;-66
2021/07/01 15:49:15;;;;;;;2.30;1.88;;;26.80;51.00;;;;;;6130959;28;80369;-65